createdAt,value
2022-11-26T00:00:30.581Z,101869.16
2022-11-26T00:02:58.873Z,101868.25
2022-11-26T00:05:32.439Z,101864.66
2022-11-26T00:08:02.050Z,101880.56
2022-11-26T00:10:35.646Z,101879.66
2022-11-26T00:13:03.633Z,101881.41
2022-11-26T00:15:32.985Z,101879.63
2022-11-26T00:18:00.992Z,101885.81
2022-11-26T00:20:31.637Z,101870.69
2022-11-26T00:23:03.316Z,101894.63
2022-11-26T00:25:39.623Z,101897.25
2022-11-26T00:28:26.366Z,101899.88
2022-11-26T00:30:56.081Z,101907.81
2022-11-26T00:33:24.364Z,101897.16
2022-11-26T00:35:56.905Z,101900.72
2022-11-26T00:38:25.551Z,101903.34
2022-11-26T00:40:54.896Z,101897.06
2022-11-26T00:43:23.138Z,101912.13
2022-11-26T00:45:51.173Z,101918.28
2022-11-26T00:48:19.396Z,101918.28
2022-11-26T00:50:50.122Z,101920.03
2022-11-26T00:53:20.092Z,101929.72
2022-11-26T00:55:50.457Z,101925.25
2022-11-26T00:58:26.613Z,101934.97
2022-11-26T01:00:55.874Z,101943.78
2022-11-26T01:03:24.219Z,101939.41
2022-11-26T01:05:53.834Z,101949.09
2022-11-26T01:08:29.752Z,101953.53
2022-11-26T01:10:58.158Z,101955.31
2022-11-26T01:13:28.041Z,101956.19
2022-11-26T01:15:57.169Z,101971.19
2022-11-26T01:18:26.407Z,101969.41
2022-11-26T01:20:54.504Z,101974.72
2022-11-26T01:23:22.804Z,101971.19
2022-11-26T01:25:50.959Z,101973.84
2022-11-26T01:28:20.036Z,101968.56
2022-11-26T01:30:49.401Z,101966.78
2022-11-26T01:33:17.339Z,101972.06
2022-11-26T01:35:45.299Z,101976.50
2022-11-26T01:38:15.578Z,101982.66
2022-11-26T01:41:03.621Z,101977.34
2022-11-26T01:43:37.625Z,101992.31
2022-11-26T01:46:15.696Z,101985.22
2022-11-26T01:48:43.858Z,101967.38
2022-11-26T01:51:12.774Z,101972.69
2022-11-26T01:53:48.068Z,101998.34
2022-11-26T01:56:20.999Z,101996.63
2022-11-26T01:58:54.268Z,101991.28
2022-11-26T02:01:23.701Z,101997.50
2022-11-26T02:04:00.827Z,102004.50
2022-11-26T02:06:33.191Z,102005.34
2022-11-26T02:09:03.334Z,102005.34
2022-11-26T02:11:31.294Z,102010.66
2022-11-26T02:14:03.469Z,102007.09
2022-11-26T02:16:58.593Z,102012.38
2022-11-26T02:20:03.433Z,102019.44
2022-11-26T02:22:48.239Z,102014.09
2022-11-26T02:25:20.618Z,102029.97
2022-11-26T02:28:16.430Z,102022.88
2022-11-26T02:30:50.123Z,102022.88
2022-11-26T02:33:23.112Z,102026.34
2022-11-26T02:35:57.866Z,102034.31
2022-11-26T02:38:30.345Z,102043.16
2022-11-26T02:40:58.592Z,102043.06
2022-11-26T02:43:27.617Z,102043.97
2022-11-26T02:46:01.837Z,102050.13
2022-11-26T02:48:35.223Z,102043.97
2022-11-26T02:51:06.156Z,102051.00
2022-11-26T02:53:40.130Z,102065.13
2022-11-26T02:56:11.236Z,102062.50
2022-11-26T02:58:39.656Z,102069.53
2022-11-26T03:01:13.695Z,102040.28
2022-11-26T03:03:47.933Z,102065.16
2022-11-26T03:06:18.347Z,102065.13
2022-11-26T03:08:47.024Z,102065.19
2022-11-26T03:11:14.956Z,102072.19
2022-11-26T03:13:42.951Z,102076.63
2022-11-26T03:16:12.297Z,102088.03
2022-11-26T03:18:40.319Z,102077.44
2022-11-26T03:21:08.772Z,102077.34
2022-11-26T03:23:36.749Z,102080.91
2022-11-26T03:26:04.737Z,102088.81
2022-11-26T03:28:32.729Z,102089.75
2022-11-26T03:31:00.731Z,102086.19
2022-11-26T03:33:30.023Z,102093.25
2022-11-26T03:35:58.027Z,102095.00
2022-11-26T03:38:25.997Z,102095.84
2022-11-26T03:40:57.831Z,102089.63
2022-11-26T03:43:25.847Z,102099.31
2022-11-26T03:45:54.090Z,102089.59
2022-11-26T03:48:22.194Z,102101.09
2022-11-26T03:50:51.489Z,102102.78
2022-11-26T03:53:19.475Z,102107.25
2022-11-26T03:55:49.430Z,102112.53
2022-11-26T03:58:17.433Z,102106.38
2022-11-26T04:00:45.447Z,102107.22
2022-11-26T04:03:13.448Z,102114.22
2022-11-26T04:05:41.448Z,102119.50
2022-11-26T04:08:10.813Z,102116.00
2022-11-26T04:10:38.785Z,102115.16
2022-11-26T04:13:06.920Z,102122.28
2022-11-26T04:15:35.117Z,102119.63
2022-11-26T04:18:03.064Z,102119.63
2022-11-26T04:20:31.011Z,102119.59
2022-11-26T04:22:58.979Z,102114.31
2022-11-26T04:25:28.287Z,102130.09
2022-11-26T04:27:56.618Z,102124.78
2022-11-26T04:30:25.157Z,102132.72
2022-11-26T04:32:53.228Z,102127.41
2022-11-26T04:35:21.258Z,102129.09
2022-11-26T04:37:49.251Z,102137.91
2022-11-26T04:40:17.238Z,102129.09
2022-11-26T04:42:46.564Z,102135.22
2022-11-26T04:45:14.501Z,102145.75
2022-11-26T04:47:43.281Z,102150.06
2022-11-26T04:50:12.331Z,102149.09
2022-11-26T04:52:40.369Z,102154.31
2022-11-26T04:55:08.922Z,102163.91
2022-11-26T04:57:37.005Z,102164.81
2022-11-26T05:00:08.393Z,102162.97
2022-11-26T05:02:36.397Z,102172.69
2022-11-26T05:05:04.513Z,102162.03
2022-11-26T05:07:32.563Z,102168.22
2022-11-26T05:10:00.548Z,102169.06
2022-11-26T05:12:28.825Z,102172.53
2022-11-26T05:14:56.798Z,102170.78
2022-11-26T05:17:26.123Z,102174.28
2022-11-26T05:19:54.040Z,102187.44
2022-11-26T05:22:22.015Z,102182.19
2022-11-26T05:24:50.013Z,102187.41
2022-11-26T05:27:17.975Z,102194.53
2022-11-26T05:29:45.970Z,102190.91
2022-11-26T05:32:13.919Z,102195.34
2022-11-26T05:34:43.479Z,102198.88
2022-11-26T05:37:11.674Z,102191.94
2022-11-26T05:39:39.719Z,102201.69
2022-11-26T05:42:09.376Z,102193.78
2022-11-26T05:44:38.159Z,102197.47
2022-11-26T05:47:06.512Z,102209.88
2022-11-26T05:49:34.666Z,102215.09
2022-11-26T05:52:04.024Z,102216.13
2022-11-26T05:54:32.071Z,102215.28
2022-11-26T05:57:00.518Z,102225.81
2022-11-26T05:59:28.920Z,102216.16
2022-11-26T06:01:57.201Z,102221.59
2022-11-26T06:04:25.473Z,102217.09
2022-11-26T06:06:53.384Z,102224.94
2022-11-26T06:09:22.730Z,102223.19
2022-11-26T06:11:51.111Z,102224.94
2022-11-26T06:14:19.558Z,102236.41
2022-11-26T06:16:47.665Z,102233.91
2022-11-26T06:19:15.795Z,102242.63
2022-11-26T06:21:43.699Z,102247.94
2022-11-26T06:24:11.952Z,102247.97
2022-11-26T06:26:41.572Z,102245.28
2022-11-26T06:29:09.555Z,102235.63
2022-11-26T06:31:37.555Z,102242.78
2022-11-26T06:34:05.668Z,102244.50
2022-11-26T06:36:33.720Z,102266.63
2022-11-26T06:39:01.698Z,102256.00
2022-11-26T06:41:29.681Z,102260.38
2022-11-26T06:43:59.683Z,102270.97
2022-11-26T06:46:27.658Z,102256.97
2022-11-26T06:48:55.668Z,102264.09
2022-11-26T06:51:27.775Z,102265.94
2022-11-26T06:53:55.761Z,102268.53
2022-11-26T06:56:23.859Z,102269.44
2022-11-26T06:58:55.299Z,102284.44
2022-11-26T07:01:26.402Z,102287.91
2022-11-26T07:03:55.346Z,102291.56
2022-11-26T07:06:25.159Z,102277.41
2022-11-26T07:08:54.853Z,102287.19
2022-11-26T07:11:24.112Z,102288.94
2022-11-26T07:13:52.522Z,102298.56
2022-11-26T07:16:21.151Z,102301.25
2022-11-26T07:18:51.493Z,102300.34
2022-11-26T07:21:20.744Z,102307.47
2022-11-26T07:23:49.195Z,102311.00
2022-11-26T07:26:19.389Z,102307.53
2022-11-26T07:28:48.111Z,102318.13
2022-11-26T07:31:18.641Z,102321.72
2022-11-26T07:33:47.730Z,102326.06
2022-11-26T07:36:18.921Z,102328.78
2022-11-26T07:38:47.103Z,102331.41
2022-11-26T07:41:17.653Z,102319.91
2022-11-26T07:43:46.440Z,102334.09
2022-11-26T07:46:18.179Z,102335.13
2022-11-26T07:48:46.828Z,102326.28
2022-11-26T07:51:21.147Z,102337.78
2022-11-26T07:53:50.015Z,102336.91
2022-11-26T07:56:18.901Z,102334.22
2022-11-26T07:58:47.210Z,102321.78
2022-11-26T08:01:17.281Z,102337.78
2022-11-26T08:03:47.148Z,102348.44
2022-11-26T08:06:17.083Z,102352.03
2022-11-26T08:08:46.709Z,102351.13
2022-11-26T08:11:16.548Z,102344.97
2022-11-26T08:13:45.569Z,102355.59
2022-11-26T08:16:14.442Z,102352.94
2022-11-26T08:18:42.952Z,102358.31
2022-11-26T08:21:11.354Z,102355.75
2022-11-26T08:23:39.885Z,102355.75
2022-11-26T08:26:24.013Z,102364.59
2022-11-26T08:28:56.229Z,102365.59
2022-11-26T08:31:24.855Z,102372.63
2022-11-26T08:33:53.050Z,102367.38
2022-11-26T08:36:21.002Z,102366.53
2022-11-26T08:38:48.945Z,102371.97
2022-11-26T08:41:18.338Z,102375.47
2022-11-26T08:46:34.286Z,102371.00
2022-11-26T08:49:02.334Z,102368.38
2022-11-26T08:51:30.270Z,102372.91
2022-11-26T08:53:58.215Z,102377.28
2022-11-26T08:56:27.760Z,102384.38
2022-11-26T08:58:55.772Z,102379.94
2022-11-26T09:01:26.358Z,102389.75
2022-11-26T09:03:56.646Z,102377.41
2022-11-26T09:06:26.673Z,102380.06
2022-11-26T09:09:12.238Z,102380.09
2022-11-26T09:11:43.730Z,102382.88
2022-11-26T09:14:12.520Z,102381.97
2022-11-26T09:16:40.634Z,102382.84
2022-11-26T09:19:09.772Z,102382.94
2022-11-26T09:21:38.187Z,102383.78
2022-11-26T09:24:06.599Z,102378.50
2022-11-26T09:26:35.256Z,102390.03
2022-11-26T09:29:04.970Z,102390.00
2022-11-26T09:31:33.433Z,102386.47
2022-11-26T09:34:02.488Z,102391.91
2022-11-26T09:36:30.602Z,102395.56
2022-11-26T09:38:59.825Z,102396.41
2022-11-26T09:41:39.559Z,102406.97
2022-11-26T09:44:22.211Z,102407.78
2022-11-26T09:47:14.829Z,102409.56
2022-11-26T09:49:56.246Z,102416.59
2022-11-26T09:52:27.887Z,102418.34
2022-11-26T09:55:05.667Z,102418.34
2022-11-26T09:57:41.058Z,102412.22
2022-11-26T10:00:26.355Z,102414.03
2022-11-26T10:02:55.693Z,102412.28
2022-11-26T10:05:26.123Z,102415.03
2022-11-26T10:08:04.256Z,102408.03
2022-11-26T10:10:42.747Z,102415.19
2022-11-26T10:13:21.460Z,102427.59
2022-11-26T10:16:01.827Z,102429.25
2022-11-26T10:18:41.169Z,102439.06
2022-11-26T10:21:27.210Z,102436.44
2022-11-26T10:23:59.932Z,102438.19
2022-11-26T10:26:30.816Z,102443.44
2022-11-26T10:29:16.947Z,102439.88
2022-11-26T10:31:49.225Z,102437.22
2022-11-26T10:34:20.560Z,102434.72
2022-11-26T10:36:49.472Z,102439.19
2022-11-26T10:39:20.492Z,102437.56
2022-11-26T10:41:49.186Z,102428.84
2022-11-26T10:44:37.033Z,102438.81
2022-11-26T10:47:26.689Z,102444.97
2022-11-26T10:49:56.651Z,102446.78
2022-11-26T10:52:28.009Z,102453.78
2022-11-26T10:55:20.044Z,102459.06
2022-11-26T10:57:52.803Z,102453.66
2022-11-26T11:00:31.655Z,102458.97
2022-11-26T11:03:02.203Z,102454.66
2022-11-26T11:05:30.452Z,102452.00
2022-11-26T11:07:58.572Z,102449.44
2022-11-26T11:10:27.855Z,102451.19
2022-11-26T11:13:05.061Z,102447.56
2022-11-26T11:15:36.174Z,102455.44
2022-11-26T11:18:08.426Z,102450.19
2022-11-26T11:20:38.227Z,102443.09
2022-11-26T11:23:19.659Z,102452.00
2022-11-26T11:25:58.315Z,102449.31
2022-11-26T11:28:29.052Z,102451.97
2022-11-26T11:31:04.488Z,102458.06
2022-11-26T11:33:34.297Z,102449.03
2022-11-26T11:36:06.293Z,102437.53
2022-11-26T11:38:46.834Z,102452.66
2022-11-26T11:41:22.588Z,102445.66
2022-11-26T11:43:50.754Z,102441.34
2022-11-26T11:46:37.511Z,102459.06
2022-11-26T11:49:23.315Z,102458.22
2022-11-26T11:52:05.275Z,102459.00
2022-11-26T11:54:45.813Z,102459.06
2022-11-26T11:57:22.673Z,102460.81
2022-11-26T12:00:13.526Z,102468.72
2022-11-26T12:03:14.012Z,102461.69
2022-11-26T12:06:06.085Z,102456.50
2022-11-26T12:08:44.832Z,102461.84
2022-11-26T12:11:29.363Z,102461.72
2022-11-26T12:14:03.983Z,102458.19
2022-11-26T12:16:36.855Z,102453.72
2022-11-26T12:19:13.263Z,102448.41
2022-11-26T12:21:46.930Z,102447.47
2022-11-26T12:24:21.003Z,102451.00
2022-11-26T12:26:54.194Z,102449.25
2022-11-26T12:29:31.744Z,102443.94
2022-11-26T12:32:03.755Z,102447.50
2022-11-26T12:34:35.307Z,102452.84
2022-11-26T12:37:12.941Z,102455.53
2022-11-26T12:39:53.808Z,102447.53
2022-11-26T12:42:29.250Z,102448.44
2022-11-26T12:45:07.130Z,102442.22
2022-11-26T12:47:39.268Z,102448.34
2022-11-26T12:50:16.371Z,102449.19
2022-11-26T12:52:53.625Z,102445.72
2022-11-26T12:55:26.834Z,102442.25
2022-11-26T12:57:59.735Z,102447.59
2022-11-26T13:00:35.752Z,102448.44
2022-11-26T13:03:06.836Z,102456.41
2022-11-26T13:05:51.280Z,102452.00
2022-11-26T13:08:39.039Z,102451.03
2022-11-26T13:11:22.051Z,102446.66
2022-11-26T13:13:59.515Z,102448.44
2022-11-26T13:16:35.801Z,102451.09
2022-11-26T13:19:08.158Z,102439.59
2022-11-26T13:21:50.668Z,102438.66
2022-11-26T13:24:46.108Z,102443.88
2022-11-26T13:27:32.589Z,102442.16
2022-11-26T13:30:15.898Z,102439.50
2022-11-26T13:33:16.026Z,102442.97
2022-11-26T13:36:06.979Z,102455.34
2022-11-26T13:38:49.253Z,102443.03
2022-11-26T13:41:40.531Z,102444.84
2022-11-26T13:44:39.269Z,102438.59
2022-11-26T13:47:11.987Z,102439.53
2022-11-26T13:49:45.066Z,102440.44
2022-11-26T13:52:16.813Z,102446.69
2022-11-26T13:54:49.003Z,102445.75
2022-11-26T13:57:22.404Z,102437.78
2022-11-26T13:59:52.468Z,102444.84
2022-11-26T14:02:42.588Z,102444.91
2022-11-26T14:05:13.060Z,102436.91
2022-11-26T14:07:41.640Z,102435.09
2022-11-26T14:10:41.411Z,102441.38
2022-11-26T14:13:16.406Z,102436.09
2022-11-26T14:15:56.508Z,102443.16
2022-11-26T14:19:07.523Z,102436.09
2022-11-26T14:22:01.269Z,102445.81
2022-11-26T14:24:57.677Z,102458.22
2022-11-26T14:27:27.597Z,102450.25
2022-11-26T14:30:01.181Z,102450.28
2022-11-26T14:32:34.626Z,102458.22
2022-11-26T14:35:02.568Z,102450.25
2022-11-26T14:37:32.346Z,102454.66
2022-11-26T14:40:01.372Z,102456.38
2022-11-26T14:42:30.211Z,102471.41
2022-11-26T14:45:03.943Z,102472.25
2022-11-26T14:47:33.737Z,102470.44
2022-11-26T14:50:05.881Z,102471.34
2022-11-26T14:52:36.642Z,102481.03
2022-11-26T14:55:09.495Z,102473.91
2022-11-26T14:57:43.422Z,102466.84
2022-11-26T15:00:23.914Z,102468.56
2022-11-26T15:02:53.039Z,102467.72
2022-11-26T15:05:23.943Z,102466.88
2022-11-26T15:08:00.552Z,102464.22
2022-11-26T15:11:26.840Z,102468.69
2022-11-26T15:13:54.888Z,102466.03
2022-11-26T15:16:29.100Z,102464.28
2022-11-26T15:18:59.007Z,102457.22
2022-11-26T15:21:29.088Z,102458.97
2022-11-26T15:24:00.486Z,102461.66
2022-11-26T15:26:33.736Z,102458.16
2022-11-26T15:29:02.191Z,102459.94
2022-11-26T15:34:19.033Z,102453.72
2022-11-26T15:36:47.074Z,102452.88
2022-11-26T15:39:26.083Z,102459.94
2022-11-26T15:41:56.505Z,102459.97
2022-11-26T15:44:27.212Z,102462.63
2022-11-26T15:46:58.587Z,102454.69
2022-11-26T15:49:30.043Z,102460.81
2022-11-26T15:52:01.665Z,102465.28
2022-11-26T15:54:49.721Z,102476.72
2022-11-26T15:57:26.856Z,102475.81
2022-11-26T15:59:58.163Z,102482.84
2022-11-26T16:02:31.057Z,102492.56
2022-11-26T16:05:00.135Z,102490.81
2022-11-26T16:07:30.008Z,102488.13
2022-11-26T16:10:21.349Z,102486.34
2022-11-26T16:13:19.660Z,102485.47
2022-11-26T16:15:50.775Z,102480.91
2022-11-26T16:18:24.748Z,102497.84
2022-11-26T16:21:03.331Z,102490.72
2022-11-26T16:23:32.041Z,102495.09
2022-11-26T16:26:16.162Z,102498.69
2022-11-26T16:28:45.377Z,102491.59
2022-11-26T16:31:13.883Z,102488.03
2022-11-26T16:33:45.791Z,102493.41
2022-11-26T16:36:21.755Z,102465.81
2022-11-26T16:38:50.629Z,102486.31
2022-11-26T16:41:21.349Z,102496.06
2022-11-26T16:43:49.549Z,102488.13
2022-11-26T16:46:19.408Z,102479.31
2022-11-26T16:48:49.046Z,102486.34
2022-11-26T16:51:17.747Z,102479.31
2022-11-26T16:53:45.851Z,102486.38
2022-11-26T16:56:20.501Z,102482.00
2022-11-26T16:58:49.153Z,102479.34
2022-11-26T17:01:17.187Z,102476.69
2022-11-26T17:03:45.289Z,102474.94
2022-11-26T17:06:18.952Z,102476.72
2022-11-26T17:08:49.754Z,102478.50
2022-11-26T17:11:18.718Z,102476.75
2022-11-26T17:13:46.878Z,102465.28
2022-11-26T17:16:16.690Z,102469.72
2022-11-26T17:18:45.072Z,102470.59
2022-11-26T17:21:13.243Z,102477.72
2022-11-26T17:23:42.936Z,102475.03
2022-11-26T17:26:18.824Z,102475.94
2022-11-26T17:28:46.836Z,102465.34
2022-11-26T17:31:15.095Z,102469.78
2022-11-26T17:33:43.281Z,102471.53
2022-11-26T17:36:16.595Z,102468.00
2022-11-26T17:38:46.924Z,102469.81
2022-11-26T17:41:15.760Z,102440.34
2022-11-26T17:43:44.057Z,102470.69
2022-11-26T17:46:18.197Z,102467.19
2022-11-26T17:48:46.894Z,102474.25
2022-11-26T17:51:15.964Z,102461.81
2022-11-26T17:53:44.417Z,102473.38
2022-11-26T17:56:19.110Z,102469.00
2022-11-26T17:58:47.315Z,102469.91
2022-11-26T18:01:16.151Z,102465.50
2022-11-26T18:03:44.738Z,102467.22
2022-11-26T18:06:16.658Z,102463.72
2022-11-26T18:08:45.019Z,102458.34
2022-11-26T18:11:13.360Z,102469.03
2022-11-26T18:13:42.986Z,102468.16
2022-11-26T18:16:10.993Z,102463.75
2022-11-26T18:18:39.133Z,102469.06
2022-11-26T18:21:07.459Z,102466.41
2022-11-26T18:23:35.480Z,102476.19
2022-11-26T18:26:03.388Z,102482.34
2022-11-26T18:28:31.323Z,102481.47
2022-11-26T18:31:00.722Z,102482.34
2022-11-26T18:33:28.766Z,102478.81
2022-11-26T18:35:56.770Z,102476.13
2022-11-26T18:38:28.924Z,102476.16
2022-11-26T18:41:02.205Z,102484.13
2022-11-26T18:43:30.567Z,102463.59
2022-11-26T18:46:02.016Z,102478.81
2022-11-26T18:48:30.009Z,102477.03
2022-11-26T18:50:58.877Z,102470.88
2022-11-26T18:53:27.677Z,102477.91
2022-11-26T18:55:56.192Z,102473.53
2022-11-26T18:58:24.761Z,102477.06
2022-11-26T19:00:58.339Z,102463.81
2022-11-26T19:03:28.402Z,102467.38
2022-11-26T19:05:56.566Z,102476.19
2022-11-26T19:08:24.749Z,102471.78
2022-11-26T19:10:52.834Z,102470.09
2022-11-26T19:13:20.804Z,102467.41
2022-11-26T19:15:49.324Z,102467.41
2022-11-26T19:18:18.013Z,102460.31
2022-11-26T19:20:52.931Z,102462.97
2022-11-26T19:23:24.345Z,102462.09
2022-11-26T19:25:52.382Z,102460.34
2022-11-26T19:28:20.439Z,102451.50
2022-11-26T19:31:01.670Z,102449.69
2022-11-26T19:33:30.209Z,102458.59
2022-11-26T19:36:00.164Z,102452.31
2022-11-26T19:38:28.173Z,102449.72
2022-11-26T19:41:00.445Z,102440.91
2022-11-26T19:43:32.224Z,102445.31
2022-11-26T19:46:04.956Z,102443.56
2022-11-26T19:48:34.368Z,102439.13
2022-11-26T19:51:04.419Z,102445.38
2022-11-26T19:53:32.956Z,102440.06
2022-11-26T19:56:02.701Z,102442.69
2022-11-26T19:58:32.465Z,102438.28
2022-11-26T20:01:01.101Z,102434.75
2022-11-26T20:03:34.217Z,102436.50
2022-11-26T20:06:08.918Z,102433.81
2022-11-26T20:08:38.172Z,102435.63
2022-11-26T20:11:08.549Z,102435.59
2022-11-26T20:13:38.062Z,102439.97
2022-11-26T20:16:07.473Z,102430.25
2022-11-26T20:18:36.505Z,102439.06
2022-11-26T20:21:08.304Z,102442.56
2022-11-26T20:23:36.908Z,102430.13
2022-11-26T20:26:13.275Z,102425.66
2022-11-26T20:28:41.312Z,102430.94
2022-11-26T20:31:09.488Z,102400.63
2022-11-26T20:33:37.642Z,102425.59
2022-11-26T20:36:13.019Z,102423.84
2022-11-26T20:38:41.329Z,102423.84
2022-11-26T20:41:10.267Z,102423.88
2022-11-26T20:43:38.768Z,102425.63
2022-11-26T20:46:08.461Z,102428.28
2022-11-26T20:48:39.848Z,102432.72
2022-11-26T20:51:11.110Z,102435.38
2022-11-26T20:53:40.709Z,102437.19
2022-11-26T20:56:09.627Z,102437.19
2022-11-26T20:58:37.837Z,102432.72
2022-11-26T21:01:06.597Z,102430.94
